createdAt,value
2019-05-22T00:00:01.353Z,99.6
2019-05-22T00:05:01.485Z,99.57
2019-05-22T00:10:01.651Z,99.5
2019-05-22T00:15:03.009Z,99.52
2019-05-22T00:20:01.446Z,99.43
2019-05-22T00:25:01.538Z,99.59
2019-05-22T00:30:01.659Z,99.47
2019-05-22T00:35:01.839Z,99.56
2019-05-22T00:40:01.940Z,99.5
2019-05-22T00:45:02.203Z,99.49
2019-05-22T00:50:01.332Z,99.43
2019-05-22T00:55:01.489Z,99.34
2019-05-22T01:00:01.624Z,99.44
2019-05-22T01:05:01.818Z,99.49
2019-05-22T01:10:03.168Z,99.53
2019-05-22T01:15:02.515Z,99.37
2019-05-22T01:20:01.885Z,99.46
2019-05-22T01:25:02.013Z,99.38
2019-05-22T01:30:02.420Z,99.44
2019-05-22T01:35:01.607Z,99.38
2019-05-22T01:40:01.767Z,99.56
2019-05-22T01:45:06.475Z,99.38
2019-05-22T01:50:02.131Z,99.37
2019-05-22T01:55:01.263Z,99.41
2019-05-22T02:00:01.397Z,99.32
2019-05-22T02:05:01.566Z,99.29
2019-05-22T02:10:01.742Z,99.31
2019-05-22T02:15:01.883Z,99.35
2019-05-22T02:20:02.026Z,99.17
2019-05-22T02:25:01.147Z,99.37
2019-05-22T02:30:01.778Z,99.34
2019-05-22T02:35:01.962Z,99.21
2019-05-22T02:40:01.571Z,99.26
2019-05-22T02:45:01.789Z,99.11
2019-05-22T02:50:02.026Z,99.06
2019-05-22T02:55:01.158Z,99.05
2019-05-22T03:00:02.094Z,99.18
2019-05-22T03:05:01.257Z,99.12
2019-05-22T03:10:01.381Z,98.92
2019-05-22T03:15:01.582Z,98.81
2019-05-22T03:20:01.758Z,99.04
2019-05-22T03:25:01.872Z,98.76
2019-05-22T03:30:02.187Z,98.65
2019-05-22T03:35:01.399Z,98.9
2019-05-22T03:40:01.499Z,98.72
2019-05-22T03:45:01.637Z,98.68
2019-05-22T03:50:01.823Z,98.77
2019-05-22T03:55:01.983Z,98.5
2019-05-22T04:00:01.139Z,98.63
2019-05-22T04:05:01.289Z,98.44
2019-05-22T04:10:01.439Z,98.42
2019-05-22T04:15:01.548Z,98.23
2019-05-22T04:20:01.660Z,98.52
2019-05-22T04:25:01.798Z,100.09
2019-05-22T04:30:02.000Z,98.66
2019-05-22T04:35:01.307Z,100.15
2019-05-22T04:40:01.597Z,100.18
2019-05-22T04:45:01.737Z,100.11
2019-05-22T04:50:07.349Z,100.09
2019-05-22T04:55:01.822Z,99.87
2019-05-22T05:00:01.949Z,100.01
2019-05-22T05:05:02.119Z,99.68
2019-05-22T05:10:01.298Z,99.57
2019-05-22T05:15:01.467Z,99.33
2019-05-22T05:20:01.606Z,99.01
2019-05-22T05:25:01.895Z,99.05
2019-05-22T05:30:02.085Z,99.07
2019-05-22T05:35:01.317Z,98.01
2019-05-22T05:40:01.505Z,98.56
2019-05-22T05:45:01.696Z,96.63
2019-05-22T05:50:01.855Z,98.37
2019-05-22T05:55:01.999Z,98.08
2019-05-22T06:00:01.095Z,98.6
2019-05-22T06:05:01.254Z,98.02
2019-05-22T06:10:01.386Z,98.58
2019-05-22T06:15:01.519Z,96.68
2019-05-22T06:20:01.679Z,98.05
2019-05-22T06:25:01.837Z,97.67
2019-05-22T06:30:02.106Z,98.26
2019-05-22T06:35:01.287Z,97.27
2019-05-22T06:40:01.419Z,98.05
2019-05-22T06:45:01.719Z,97.85
2019-05-22T06:50:02.026Z,96.49
2019-05-22T06:55:01.527Z,96.02
2019-05-22T07:00:13.273Z,97.04
2019-05-22T07:05:01.989Z,97.27
2019-05-22T07:10:02.597Z,97.07
2019-05-22T07:15:02.000Z,97.28
2019-05-22T07:20:01.375Z,95.44
2019-05-22T07:25:01.509Z,96.58
2019-05-22T07:30:01.801Z,95.94
2019-05-22T07:35:01.537Z,97.31
2019-05-22T07:40:01.770Z,96.95
2019-05-22T07:45:02.084Z,94.38
2019-05-22T07:50:01.684Z,94.46
2019-05-22T07:55:02.094Z,94.91
2019-05-22T08:00:01.252Z,94.99
2019-05-22T08:05:01.435Z,93.41
2019-05-22T08:10:01.561Z,93.01
2019-05-22T08:15:01.652Z,94.12
2019-05-22T08:20:01.800Z,93.66
2019-05-22T08:25:02.004Z,94.31
2019-05-22T08:30:01.142Z,93.37
2019-05-22T08:35:01.298Z,91.39
2019-05-22T08:40:02.897Z,92.22
2019-05-22T08:45:01.252Z,92.26
2019-05-22T08:50:01.458Z,92
2019-05-22T08:55:01.595Z,90.76
2019-05-22T09:00:01.721Z,90.82
2019-05-22T09:05:01.883Z,90.56
2019-05-22T09:10:02.026Z,88.68
2019-05-22T09:15:01.161Z,89.94
2019-05-22T09:20:01.266Z,91.03
2019-05-22T09:25:01.478Z,88.94
2019-05-22T09:30:01.667Z,87.78
2019-05-22T09:35:01.833Z,88.53
2019-05-22T09:40:01.969Z,88.19
2019-05-22T09:45:02.132Z,84.42
2019-05-22T09:50:01.223Z,87.53
2019-05-22T09:55:01.360Z,85.12
2019-05-22T10:00:01.658Z,85.77
2019-05-22T10:05:01.958Z,82.88
2019-05-22T10:10:02.087Z,83.81
2019-05-22T10:15:01.514Z,83.02
2019-05-22T10:20:01.725Z,78.67
2019-05-22T10:25:14.814Z,77.03
2019-05-22T10:30:01.240Z,80.95
2019-05-22T10:35:01.412Z,77.78
2019-05-22T10:40:01.539Z,76.6
2019-05-22T10:45:01.735Z,76.93
2019-05-22T10:50:01.872Z,78.95
2019-05-22T10:55:02.002Z,77.1
2019-05-22T11:00:01.141Z,77.2
2019-05-22T11:05:01.351Z,77.47
2019-05-22T11:10:01.490Z,78.29
2019-05-22T11:15:01.614Z,78.39
2019-05-22T11:20:01.790Z,74
2019-05-22T11:25:02.007Z,76.31
2019-05-22T11:30:01.154Z,72.91
2019-05-22T11:35:01.421Z,74.39
2019-05-22T11:40:01.828Z,74.54
2019-05-22T11:45:02.036Z,74.86
2019-05-22T11:50:01.189Z,73.59
2019-05-22T11:55:01.330Z,74.81
2019-05-22T12:00:01.492Z,76.12
2019-05-22T12:05:01.736Z,73.67
2019-05-22T12:10:01.830Z,73.27
2019-05-22T12:15:02.092Z,74.27
2019-05-22T12:20:01.273Z,72.14
2019-05-22T12:25:01.450Z,74.27
2019-05-22T12:30:01.577Z,74.5
2019-05-22T12:35:01.902Z,74.48
2019-05-22T12:40:01.173Z,72.85
2019-05-22T12:45:01.351Z,71.47
2019-05-22T12:50:01.565Z,69.57
2019-05-22T12:55:01.884Z,69.54
2019-05-22T13:00:02.728Z,73.79
2019-05-22T13:05:01.310Z,70.65
2019-05-22T13:10:01.480Z,71.81
2019-05-22T13:15:09.931Z,74.04
2019-05-22T13:20:01.655Z,70.6
2019-05-22T13:25:01.773Z,72.62
2019-05-22T13:30:02.015Z,70.73
2019-05-22T13:35:01.271Z,69.45
2019-05-22T13:40:01.440Z,72.14
2019-05-22T13:45:01.614Z,68.12
2019-05-22T13:50:01.750Z,70.7
2019-05-22T13:55:01.890Z,72.59
2019-05-22T14:00:02.073Z,70.76
2019-05-22T14:05:01.280Z,69.41
2019-05-22T14:10:01.653Z,69.76
2019-05-22T14:15:01.884Z,74.02
2019-05-22T14:20:02.080Z,72.91
2019-05-22T14:25:01.343Z,73.97
2019-05-22T14:30:01.611Z,73.4
2019-05-22T14:35:01.833Z,69.73
2019-05-22T14:40:02.065Z,71.81
2019-05-22T14:45:01.238Z,71.53
2019-05-22T14:50:01.401Z,67.74
2019-05-22T14:55:01.728Z,69.73
2019-05-22T15:00:01.930Z,67.02
2019-05-22T15:05:02.719Z,68.29
2019-05-22T15:10:02.102Z,68.26
2019-05-22T15:15:01.414Z,66.63
2019-05-22T15:20:01.604Z,66.36
2019-05-22T15:25:01.727Z,62.87
2019-05-22T15:30:01.862Z,69.48
2019-05-22T15:35:02.023Z,62.79
2019-05-22T15:40:01.149Z,66.41
2019-05-22T15:45:01.339Z,64.51
2019-05-22T15:50:01.440Z,63.42
2019-05-22T15:55:01.764Z,66.12
2019-05-22T16:00:01.983Z,62.87
2019-05-22T16:05:01.248Z,66.86
2019-05-22T16:10:01.390Z,70.66
2019-05-22T16:15:01.500Z,63.71
2019-05-22T16:20:01.650Z,67.4
2019-05-22T16:25:01.880Z,63.9
2019-05-22T16:30:02.047Z,67.13
2019-05-22T16:35:01.202Z,67.6
2019-05-22T16:40:01.334Z,65.81
2019-05-22T16:45:01.465Z,67.93
2019-05-22T16:50:01.593Z,66.79
2019-05-22T16:55:01.744Z,69.5
2019-05-22T17:00:01.858Z,69.23
2019-05-22T17:05:02.437Z,64.39
2019-05-22T17:10:01.650Z,65.52
2019-05-22T17:15:01.784Z,65.09
2019-05-22T17:20:01.926Z,67.99
2019-05-22T17:25:02.178Z,68.79
2019-05-22T17:30:01.310Z,69.08
2019-05-22T17:35:01.678Z,65.27
2019-05-22T17:40:02.830Z,70.52
2019-05-22T17:45:01.349Z,69.95
2019-05-22T17:50:01.488Z,72.21
2019-05-22T17:55:01.631Z,72.35
2019-05-22T18:00:01.738Z,74.19
2019-05-22T18:05:01.905Z,74.17
2019-05-22T18:10:02.203Z,75.97
2019-05-22T18:15:01.423Z,75.46
2019-05-22T18:20:01.565Z,78.58
2019-05-22T18:25:01.748Z,79.41
2019-05-22T18:30:01.869Z,79.58
2019-05-22T18:35:02.009Z,81.63
2019-05-22T18:40:01.133Z,79.77
2019-05-22T18:45:01.269Z,79.46
2019-05-22T18:50:01.377Z,81.99
2019-05-22T18:55:01.808Z,82.43
2019-05-22T19:00:05.346Z,81.48
2019-05-22T19:05:01.278Z,83.1
2019-05-22T19:10:01.416Z,83.63
2019-05-22T19:15:01.561Z,83.13
2019-05-22T19:20:01.676Z,84.4
2019-05-22T19:25:01.932Z,84.86
2019-05-22T19:30:02.045Z,84.2
2019-05-22T19:35:01.140Z,83.33
2019-05-22T19:40:01.244Z,83.47
2019-05-22T19:45:01.362Z,83.96
2019-05-22T19:50:01.454Z,84.36
2019-05-22T19:55:01.549Z,84.78
2019-05-22T20:00:01.663Z,84.74
2019-05-22T20:05:01.845Z,85.94
2019-05-22T20:10:01.999Z,85.46
2019-05-22T20:15:01.413Z,85.61
2019-05-22T20:20:01.564Z,86.14
2019-05-22T20:25:01.684Z,86.32
2019-05-22T20:30:01.778Z,86.18
2019-05-22T20:35:01.952Z,85.85
2019-05-22T20:40:02.351Z,85.74
2019-05-22T20:45:01.566Z,85.31
2019-05-22T20:50:01.721Z,84.82
2019-05-22T20:55:01.896Z,85.01
2019-05-22T21:00:02.052Z,85.51
2019-05-22T21:05:01.250Z,85.15
2019-05-22T21:10:01.361Z,84.63
2019-05-22T21:15:01.462Z,84.27
2019-05-22T21:20:01.577Z,84.34
2019-05-22T21:25:01.665Z,85.2
2019-05-22T21:30:01.761Z,84.41
2019-05-22T21:35:01.858Z,84.24
2019-05-22T21:40:02.740Z,84.87
2019-05-22T21:45:01.511Z,84.72
2019-05-22T21:50:02.265Z,84.89
2019-05-22T21:55:01.406Z,84.89
2019-05-22T22:00:01.535Z,84.82
2019-05-22T22:05:01.641Z,84.72
2019-05-22T22:10:01.768Z,84.98
2019-05-22T22:15:01.898Z,86.21
2019-05-22T22:20:02.162Z,86.37
2019-05-22T22:25:01.448Z,86.66
2019-05-22T22:30:01.757Z,86.71
2019-05-22T22:35:01.962Z,86.85
2019-05-22T22:40:02.113Z,86.82
2019-05-22T22:45:01.210Z,87.34
2019-05-22T22:50:01.310Z,87.94
2019-05-22T22:55:01.452Z,88.38
2019-05-22T23:00:01.903Z,88.67
2019-05-22T23:05:01.160Z,88.88
2019-05-22T23:10:01.245Z,88.88
2019-05-22T23:20:01.423Z,89.72
2019-05-22T23:25:01.523Z,89.58
2019-05-22T23:30:01.606Z,89.72
2019-05-22T23:35:01.700Z,90.52
2019-05-22T23:40:01.863Z,89.72
2019-05-22T23:45:02.022Z,88.54
2019-05-22T23:50:01.162Z,89.36
2019-05-22T23:55:01.305Z,90.08
